Aviation Digital Data Service (ADDS)

Output produced by METARs form (2307 UTC 23 March 2019)
found at http://www.aviationweather.gov/metar/data/
 
METAR text: DNMM 232200Z 26005KT 9999 FEW012 28/26 Q1011 NOSIG
Conditions at: DNMM (LAGOS/IKEJA , NG) observed 2200 UTC 23 March 2019
Temperature: 28.0°C (82°F)
Dewpoint: 26.0°C (79°F) [RH = 89%]
Pressure (altimeter): 29.85 inches Hg (1011.0 mb)
Winds: from the W (260 degrees) at 6 MPH (5 knots; 2.6 m/s)
Visibility: 6 or more miles (10+ km)
Ceiling: at least 12,000 feet AGL
Clouds: few clouds at 1200 feet AGL
Weather: no significant weather observed at this time

METAR text: DNMM 232100Z 20004KT 9999 FEW012 28/26 Q1012 NOSIG
Conditions at: DNMM (LAGOS/IKEJA , NG) observed 2100 UTC 23 March 2019
Temperature: 28.0°C (82°F)
Dewpoint: 26.0°C (79°F) [RH = 89%]
Pressure (altimeter): 29.88 inches Hg (1012.0 mb)
Winds: from the SSW (200 degrees) at 5 MPH (4 knots; 2.1 m/s)
Visibility: 6 or more miles (10+ km)
Ceiling: at least 12,000 feet AGL
Clouds: few clouds at 1200 feet AGL
Weather: no significant weather observed at this time

METAR text: DNMM 232000Z 19007KT 9999 FEW013 29/26 Q1011 NOSIG
Conditions at: DNMM (LAGOS/IKEJA , NG) observed 2000 UTC 23 March 2019
Temperature: 29.0°C (84°F)
Dewpoint: 26.0°C (79°F) [RH = 84%]
Pressure (altimeter): 29.85 inches Hg (1011.0 mb)
Winds: from the S (190 degrees) at 8 MPH (7 knots; 3.6 m/s)
Visibility: 6 or more miles (10+ km)
Ceiling: at least 12,000 feet AGL
Clouds: few clouds at 1300 feet AGL
Weather: no significant weather observed at this time

METAR text: DNMM 231900Z 21010KT 9999 FEW013 29/26 Q1011 NOSIG
Conditions at: DNMM (LAGOS/IKEJA , NG) observed 1900 UTC 23 March 2019
Temperature: 29.0°C (84°F)
Dewpoint: 26.0°C (79°F) [RH = 84%]
Pressure (altimeter): 29.85 inches Hg (1011.0 mb)
Winds: from the SSW (210 degrees) at 12 MPH (10 knots; 5.1 m/s)
Visibility: 6 or more miles (10+ km)
Ceiling: at least 12,000 feet AGL
Clouds: few clouds at 1300 feet AGL
Weather: no significant weather observed at this time

METAR text: DNMM 231800Z 23004KT 9999 FEW013 30/25 Q1010 NOSIG
Conditions at: DNMM (LAGOS/IKEJA , NG) observed 1800 UTC 23 March 2019
Temperature: 30.0°C (86°F)
Dewpoint: 25.0°C (77°F) [RH = 75%]
Pressure (altimeter): 29.82 inches Hg (1010.0 mb)
Winds: from the SW (230 degrees) at 5 MPH (4 knots; 2.1 m/s)
Visibility: 6 or more miles (10+ km)
Ceiling: at least 12,000 feet AGL
Clouds: few clouds at 1300 feet AGL
Weather: no significant weather observed at this time

METAR text: DNMM 231700Z 23006KT 9999 FEW014 31/25 Q1009 NOSIG
Conditions at: DNMM (LAGOS/IKEJA , NG) observed 1700 UTC 23 March 2019
Temperature: 31.0°C (88°F)
Dewpoint: 25.0°C (77°F) [RH = 71%]
Pressure (altimeter): 29.79 inches Hg (1009.0 mb)
Winds: from the SW (230 degrees) at 7 MPH (6 knots; 3.1 m/s)
Visibility: 6 or more miles (10+ km)
Ceiling: at least 12,000 feet AGL
Clouds: few clouds at 1400 feet AGL
Weather: no significant weather observed at this time

METAR text: DNMM 231600Z 23008KT 9999 FEW014 32/25 Q1009 NOSIG
Conditions at: DNMM (LAGOS/IKEJA , NG) observed 1600 UTC 23 March 2019
Temperature: 32.0°C (90°F)
Dewpoint: 25.0°C (77°F) [RH = 67%]
Pressure (altimeter): 29.79 inches Hg (1009.0 mb)
Winds: from the SW (230 degrees) at 9 MPH (8 knots; 4.1 m/s)
Visibility: 6 or more miles (10+ km)
Ceiling: at least 12,000 feet AGL
Clouds: few clouds at 1400 feet AGL
Weather: no significant weather observed at this time

METAR text: DNMM 231500Z 23006KT 9999 FEW015 34/25 Q1009 NOSIG
Conditions at: DNMM (LAGOS/IKEJA , NG) observed 1500 UTC 23 March 2019
Temperature: 34.0°C (93°F)
Dewpoint: 25.0°C (77°F) [RH = 60%]
Pressure (altimeter): 29.79 inches Hg (1009.0 mb)
Winds: from the SW (230 degrees) at 7 MPH (6 knots; 3.1 m/s)
Visibility: 6 or more miles (10+ km)
Ceiling: at least 12,000 feet AGL
Clouds: few clouds at 1500 feet AGL
Weather: no significant weather observed at this time

METAR text: DNMM 231400Z 24007KT 9999 SCT015 34/25 Q1010 NOSIG
Conditions at: DNMM (LAGOS/IKEJA , NG) observed 1400 UTC 23 March 2019
Temperature: 34.0°C (93°F)
Dewpoint: 25.0°C (77°F) [RH = 60%]
Pressure (altimeter): 29.82 inches Hg (1010.0 mb)
Winds: from the WSW (240 degrees) at 8 MPH (7 knots; 3.6 m/s)
Visibility: 6 or more miles (10+ km)
Ceiling: at least 12,000 feet AGL
Clouds: scattered clouds at 1500 feet AGL
Weather: no significant weather observed at this time

METAR text: DNMM 231300Z 22008KT 9999 BKN015 34/27 Q1011 NOSIG
Conditions at: DNMM (LAGOS/IKEJA , NG) observed 1300 UTC 23 March 2019
Temperature: 34.0°C (93°F)
Dewpoint: 27.0°C (81°F) [RH = 67%]
Pressure (altimeter): 29.85 inches Hg (1011.0 mb)
Winds: from the SW (220 degrees) at 9 MPH (8 knots; 4.1 m/s)
Visibility: 6 or more miles (10+ km)
Ceiling: 1500 feet AGL
Clouds: broken clouds at 1500 feet AGL
Weather: no significant weather observed at this time

METAR text: DNMM 231200Z 29005KT 9999 BKN015 33/26 Q1012 NOSIG
Conditions at: DNMM (LAGOS/IKEJA , NG) observed 1200 UTC 23 March 2019
Temperature: 33.0°C (91°F)
Dewpoint: 26.0°C (79°F) [RH = 67%]
Pressure (altimeter): 29.88 inches Hg (1012.0 mb)
Winds: from the WNW (290 degrees) at 6 MPH (5 knots; 2.6 m/s)
Visibility: 6 or more miles (10+ km)
Ceiling: 1500 feet AGL
Clouds: broken clouds at 1500 feet AGL
Weather: no significant weather observed at this time

METAR text: DNMM 231100Z 19012KT 9999 SCT015 33/26 Q1012 NOSIG
Conditions at: DNMM (LAGOS/IKEJA , NG) observed 1100 UTC 23 March 2019
Temperature: 33.0°C (91°F)
Dewpoint: 26.0°C (79°F) [RH = 67%]
Pressure (altimeter): 29.88 inches Hg (1012.0 mb)
Winds: from the S (190 degrees) at 14 MPH (12 knots; 6.2 m/s)
Visibility: 6 or more miles (10+ km)
Ceiling: at least 12,000 feet AGL
Clouds: scattered clouds at 1500 feet AGL
Weather: no significant weather observed at this time

METAR text: DNMM 231000Z 20004KT 9999 SCT014 32/27 Q1013 NOSIG
Conditions at: DNMM (LAGOS/IKEJA , NG) observed 1000 UTC 23 March 2019
Temperature: 32.0°C (90°F)
Dewpoint: 27.0°C (81°F) [RH = 75%]
Pressure (altimeter): 29.91 inches Hg (1013.0 mb)
Winds: from the SSW (200 degrees) at 5 MPH (4 knots; 2.1 m/s)
Visibility: 6 or more miles (10+ km)
Ceiling: at least 12,000 feet AGL
Clouds: scattered clouds at 1400 feet AGL
Weather: no significant weather observed at this time

METAR text: DNMM 230900Z 25004KT 9999 SCT014 31/26 Q1014 NOSIG
Conditions at: DNMM (LAGOS/IKEJA , NG) observed 0900 UTC 23 March 2019
Temperature: 31.0°C (88°F)
Dewpoint: 26.0°C (79°F) [RH = 75%]
Pressure (altimeter): 29.94 inches Hg (1014.0 mb)
Winds: from the WSW (250 degrees) at 5 MPH (4 knots; 2.1 m/s)
Visibility: 6 or more miles (10+ km)
Ceiling: at least 12,000 feet AGL
Clouds: scattered clouds at 1400 feet AGL
Weather: no significant weather observed at this time

METAR text: DNMM 230800Z 21007KT 9999 SCT013 29/26 Q1013 NOSIG
Conditions at: DNMM (LAGOS/IKEJA , NG) observed 0800 UTC 23 March 2019
Temperature: 29.0°C (84°F)
Dewpoint: 26.0°C (79°F) [RH = 84%]
Pressure (altimeter): 29.91 inches Hg (1013.0 mb)
Winds: from the SSW (210 degrees) at 8 MPH (7 knots; 3.6 m/s)
Visibility: 6 or more miles (10+ km)
Ceiling: at least 12,000 feet AGL
Clouds: scattered clouds at 1300 feet AGL
Weather: no significant weather observed at this time

METAR text: DNMM 230700Z 00000KT 8000 FEW010 26/25 Q1011 NOSIG
Conditions at: DNMM (LAGOS/IKEJA , NG) observed 0700 UTC 23 March 2019
Temperature: 26.0°C (79°F)
Dewpoint: 25.0°C (77°F) [RH = 94%]
Pressure (altimeter): 29.85 inches Hg (1011.0 mb)
Winds: calm
Visibility: 5 miles ( 8 km)
Ceiling: at least 12,000 feet AGL
Clouds: few clouds at 1000 feet AGL
Weather: no significant weather observed at this time

METAR text: DNMM 230600Z VRB02KT 8000 FEW009 25/24 Q1011 NOSIG
Conditions at: DNMM (LAGOS/IKEJA , NG) observed 0600 UTC 23 March 2019
Temperature: 25.0°C (77°F)
Dewpoint: 24.0°C (75°F) [RH = 94%]
Pressure (altimeter): 29.85 inches Hg (1011.0 mb)
Winds: variable direction winds at 2 MPH (2 knots; 1.0 m/s)
Visibility: 5 miles ( 8 km)
Ceiling: at least 12,000 feet AGL
Clouds: few clouds at 900 feet AGL
Weather: no significant weather observed at this time

METAR text: DNMM 230500Z VRB02KT 9999 FEW010 26/24 Q1010 NOSIG
Conditions at: DNMM (LAGOS/IKEJA , NG) observed 0500 UTC 23 March 2019
Temperature: 26.0°C (79°F)
Dewpoint: 24.0°C (75°F) [RH = 89%]
Pressure (altimeter): 29.82 inches Hg (1010.0 mb)
Winds: variable direction winds at 2 MPH (2 knots; 1.0 m/s)
Visibility: 6 or more miles (10+ km)
Ceiling: at least 12,000 feet AGL
Clouds: few clouds at 1000 feet AGL
Weather: no significant weather observed at this time

METAR text: DNMM 230400Z VRB02KT 9999 FEW010 26/23 Q1010 NOSIG
Conditions at: DNMM (LAGOS/IKEJA , NG) observed 0400 UTC 23 March 2019
Temperature: 26.0°C (79°F)
Dewpoint: 23.0°C (73°F) [RH = 84%]
Pressure (altimeter): 29.82 inches Hg (1010.0 mb)
Winds: variable direction winds at 2 MPH (2 knots; 1.0 m/s)
Visibility: 6 or more miles (10+ km)
Ceiling: at least 12,000 feet AGL
Clouds: few clouds at 1000 feet AGL
Weather: no significant weather observed at this time

METAR text: DNMM 230300Z VRB02KT 9999 FEW010 26/23 Q1010 NOSIG
Conditions at: DNMM (LAGOS/IKEJA , NG) observed 0300 UTC 23 March 2019
Temperature: 26.0°C (79°F)
Dewpoint: 23.0°C (73°F) [RH = 84%]
Pressure (altimeter): 29.82 inches Hg (1010.0 mb)
Winds: variable direction winds at 2 MPH (2 knots; 1.0 m/s)
Visibility: 6 or more miles (10+ km)
Ceiling: at least 12,000 feet AGL
Clouds: few clouds at 1000 feet AGL
Weather: no significant weather observed at this time

METAR text: DNMM 222300Z 24003KT 9999 FEW011 27/24 Q1012 NOSIG
Conditions at: DNMM (LAGOS/IKEJA , NG) observed 2300 UTC 22 March 2019
Temperature: 27.0°C (81°F)
Dewpoint: 24.0°C (75°F) [RH = 84%]
Pressure (altimeter): 29.88 inches Hg (1012.0 mb)
Winds: from the WSW (240 degrees) at 3 MPH (3 knots; 1.5 m/s)
Visibility: 6 or more miles (10+ km)
Ceiling: at least 12,000 feet AGL
Clouds: few clouds at 1100 feet AGL
Weather: no significant weather observed at this time

METAR text: DNMM 222200Z 24003KT 9999 FEW012 28/24 Q1012 NOSIG
Conditions at: DNMM (LAGOS/IKEJA , NG) observed 2200 UTC 22 March 2019
Temperature: 28.0°C (82°F)
Dewpoint: 24.0°C (75°F) [RH = 79%]
Pressure (altimeter): 29.88 inches Hg (1012.0 mb)
Winds: from the WSW (240 degrees) at 3 MPH (3 knots; 1.5 m/s)
Visibility: 6 or more miles (10+ km)
Ceiling: at least 12,000 feet AGL
Clouds: few clouds at 1200 feet AGL
Weather: no significant weather observed at this time

METAR text: DNMM 222100Z VRB02KT 9999 FEW012 28/23 Q1011 NOSIG
Conditions at: DNMM (LAGOS/IKEJA , NG) observed 2100 UTC 22 March 2019
Temperature: 28.0°C (82°F)
Dewpoint: 23.0°C (73°F) [RH = 74%]
Pressure (altimeter): 29.85 inches Hg (1011.0 mb)
Winds: variable direction winds at 2 MPH (2 knots; 1.0 m/s)
Visibility: 6 or more miles (10+ km)
Ceiling: at least 12,000 feet AGL
Clouds: few clouds at 1200 feet AGL
Weather: no significant weather observed at this time

METAR text: DNMM 222000Z VRB02KT 9999 FEW013 29/23 Q1010 NOSIG
Conditions at: DNMM (LAGOS/IKEJA , NG) observed 2000 UTC 22 March 2019
Temperature: 29.0°C (84°F)
Dewpoint: 23.0°C (73°F) [RH = 70%]
Pressure (altimeter): 29.82 inches Hg (1010.0 mb)
Winds: variable direction winds at 2 MPH (2 knots; 1.0 m/s)
Visibility: 6 or more miles (10+ km)
Ceiling: at least 12,000 feet AGL
Clouds: few clouds at 1300 feet AGL
Weather: no significant weather observed at this time

METAR text: DNMM 221900Z 20008KT 9999 FEW013 29/23 Q1010 NOSIG
Conditions at: DNMM (LAGOS/IKEJA , NG) observed 1900 UTC 22 March 2019
Temperature: 29.0°C (84°F)
Dewpoint: 23.0°C (73°F) [RH = 70%]
Pressure (altimeter): 29.82 inches Hg (1010.0 mb)
Winds: from the SSW (200 degrees) at 9 MPH (8 knots; 4.1 m/s)
Visibility: 6 or more miles (10+ km)
Ceiling: at least 12,000 feet AGL
Clouds: few clouds at 1300 feet AGL
Weather: no significant weather observed at this time

METAR text: DNMM 221800Z 18006KT 9999 FEW013 30/23 Q1009 NOSIG
Conditions at: DNMM (LAGOS/IKEJA , NG) observed 1800 UTC 22 March 2019
Temperature: 30.0°C (86°F)
Dewpoint: 23.0°C (73°F) [RH = 66%]
Pressure (altimeter): 29.79 inches Hg (1009.0 mb)
Winds: from the S (180 degrees) at 7 MPH (6 knots; 3.1 m/s)
Visibility: 6 or more miles (10+ km)
Ceiling: at least 12,000 feet AGL
Clouds: few clouds at 1300 feet AGL
Weather: no significant weather observed at this time

METAR text: DNMM 221700Z 17008KT 9999 FEW014 32/24 Q1008 NOSIG
Conditions at: DNMM (LAGOS/IKEJA , NG) observed 1700 UTC 22 March 2019
Temperature: 32.0°C (90°F)
Dewpoint: 24.0°C (75°F) [RH = 63%]
Pressure (altimeter): 29.76 inches Hg (1008.0 mb)
Winds: from the S (170 degrees) at 9 MPH (8 knots; 4.1 m/s)
Visibility: 6 or more miles (10+ km)
Ceiling: at least 12,000 feet AGL
Clouds: few clouds at 1400 feet AGL
Weather: no significant weather observed at this time

METAR text: DNMM 221600Z 18004KT 9999 FEW015 34/26 Q1008 NOSIG
Conditions at: DNMM (LAGOS/IKEJA , NG) observed 1600 UTC 22 March 2019
Temperature: 34.0°C (93°F)
Dewpoint: 26.0°C (79°F) [RH = 63%]
Pressure (altimeter): 29.76 inches Hg (1008.0 mb)
Winds: from the S (180 degrees) at 5 MPH (4 knots; 2.1 m/s)
Visibility: 6 or more miles (10+ km)
Ceiling: at least 12,000 feet AGL
Clouds: few clouds at 1500 feet AGL
Weather: no significant weather observed at this time

METAR text: DNMM 221500Z 01004KT 9999 FEW015 34/25 Q1008 NOSIG
Conditions at: DNMM (LAGOS/IKEJA , NG) observed 1500 UTC 22 March 2019
Temperature: 34.0°C (93°F)
Dewpoint: 25.0°C (77°F) [RH = 60%]
Pressure (altimeter): 29.76 inches Hg (1008.0 mb)
Winds: from the N (10 degrees) at 5 MPH (4 knots; 2.1 m/s)
Visibility: 6 or more miles (10+ km)
Ceiling: at least 12,000 feet AGL
Clouds: few clouds at 1500 feet AGL
Weather: no significant weather observed at this time

Forecast for: DNMM (LAGOS/IKEJA , NG)
Text: TAF DNMM 231540Z 2318/2424 19004KT 9999 FEW011
Forecast period: 1800 UTC 23 March 2019 to 0800 UTC 24 March 2019
Forecast type: FROM: standard forecast or significant change
Winds: from the S (190 degrees) at 5 MPH (4 knots; 2.1 m/s)
Visibility: 6 or more miles 10+ km)
Ceiling: at least 12,000 feet AGL
Clouds: few clouds at 1100 feet AGL
Weather: no significant weather forecast for this period
Text: BECMG 2408/2410 25011KT BKN012
Forecast period: 0800 UTC 24 March 2019 to 0000 UTC 25 March 2019
Forecast type: BECOMING: Conditions expected to become as follows by 1000 UTC 24 March 2019
Winds: from the WSW (250 degrees) at 13 MPH (11 knots; 5.7 m/s)
Visibility: 6 or more miles 10+ km)
Ceiling: 1200 feet AGL
Clouds: broken clouds at 1200 feet AGL
Weather: no significant weather forecast for this period
Text: TEMPO 2411/2416 BKN014 FEW020CB
Forecast period: 1100 to 1600 UTC 24 March 2019
Forecast type: TEMPORARY: The following changes expected for less than half the time period
Visibility: missing
Ceiling: 1400 feet AGL
Clouds: broken clouds at 1400 feet AGL
few clouds at 2000 feet AGL
Weather: no significant weather forecast for this period